St Helier, United Kingdom
Current Conditions -  °F | °C
As of 5:20 AM on Monday 26 Jan 2015 (Local Time) from EGJJ Reporting Station
Drizzle Drizzle  
Wind Chill:   Ceiling: Unl
Heat Index:   Visibility: 0.25mi
Dew Point:   Wind: 20mph
Humidity: 93%   Direction: 250°WSW
Pressure: 30.33"   Gusts: NA
Location:  49.18°N, 2.1°W
Report Text: EGJJ 260420Z 25017KT 0400 -DZ FG BKN000 09/08 Q1027 TEMPO 1200 BKN001
Loading
Personal Weather Stations






























Interactive Weather Map New forecast layout! Learn more

10-Day Weather Forecast

Advertisements
Track Severe Weather on mobile